createdAt,value
2019-02-07T00:00:54.884Z,6.90
2019-02-07T00:03:24.389Z,6.32
2019-02-07T00:05:53.850Z,6.51
2019-02-07T00:08:23.502Z,6.77
2019-02-07T00:10:52.988Z,6.39
2019-02-07T00:13:22.514Z,5.94
2019-02-07T00:15:51.973Z,6.08
2019-02-07T00:18:21.466Z,6.24
2019-02-07T00:20:51.331Z,6.33
2019-02-07T00:23:21.602Z,6.17
2019-02-07T00:25:51.037Z,6.09
2019-02-07T00:28:20.422Z,6.02
2019-02-07T00:30:49.799Z,6.02
2019-02-07T00:33:19.262Z,6.07
2019-02-07T00:35:48.895Z,6.13
2019-02-07T00:38:18.320Z,6.04
2019-02-07T00:40:47.763Z,6.29
2019-02-07T00:43:17.127Z,6.51
2019-02-07T00:45:46.505Z,6.55
2019-02-07T00:48:15.886Z,6.15
2019-02-07T00:50:45.234Z,6.34
2019-02-07T00:53:14.638Z,6.12
2019-02-07T00:55:44.128Z,6.04
2019-02-07T00:58:13.509Z,6.03
2019-02-07T01:00:42.948Z,6.11
2019-02-07T01:03:12.480Z,6.66
2019-02-07T01:05:42.130Z,6.81
2019-02-07T01:08:11.721Z,6.74
2019-02-07T01:10:41.136Z,6.57
2019-02-07T01:13:10.867Z,6.50
2019-02-07T01:15:40.298Z,6.45
2019-02-07T01:18:10.103Z,5.71
2019-02-07T01:20:39.894Z,5.73
2019-02-07T01:23:09.393Z,5.76
2019-02-07T01:25:38.804Z,5.78
2019-02-07T01:28:08.226Z,5.51
2019-02-07T01:30:37.862Z,5.70
2019-02-07T01:33:07.264Z,5.84
2019-02-07T01:35:36.911Z,6.00
2019-02-07T01:38:06.330Z,6.16
2019-02-07T01:40:35.687Z,6.42
2019-02-07T01:43:05.587Z,6.59
2019-02-07T01:45:34.937Z,6.65
2019-02-07T01:48:04.466Z,6.86
2019-02-07T01:50:34.115Z,7.30
2019-02-07T01:53:03.460Z,7.23
2019-02-07T01:55:32.820Z,6.67
2019-02-07T01:58:02.346Z,6.12
2019-02-07T02:00:31.808Z,5.78
2019-02-07T02:03:01.189Z,5.56
2019-02-07T02:05:30.840Z,5.35
2019-02-07T02:08:00.177Z,5.17
2019-02-07T02:10:29.854Z,5.29
2019-02-07T02:12:59.370Z,4.83
2019-02-07T02:15:28.841Z,4.67
2019-02-07T02:17:58.284Z,5.09
2019-02-07T02:20:27.896Z,5.13
2019-02-07T02:22:57.323Z,5.09
2019-02-07T02:25:26.699Z,4.64
2019-02-07T02:27:56.208Z,4.69
2019-02-07T02:30:28.026Z,5.10
2019-02-07T02:32:57.450Z,5.00
2019-02-07T02:35:26.937Z,5.23
2019-02-07T02:37:56.291Z,4.85
2019-02-07T02:40:26.085Z,4.70
2019-02-07T02:42:55.929Z,4.79
2019-02-07T02:48:14.243Z,4.36
2019-02-07T02:50:43.777Z,3.86
2019-02-07T02:53:13.313Z,4.13
2019-02-07T02:55:44.128Z,4.09
2019-02-07T02:58:13.741Z,4.65
2019-02-07T03:01:00.857Z,4.54
2019-02-07T03:03:35.582Z,4.59
2019-02-07T03:06:27.027Z,4.99
2019-02-07T03:09:14.304Z,4.81
2019-02-07T03:12:08.904Z,4.72
2019-02-07T03:15:01.952Z,5.18
2019-02-07T03:17:50.848Z,5.31
2019-02-07T03:20:42.225Z,5.74
2019-02-07T03:23:36.721Z,5.52
2019-02-07T03:26:19.318Z,6.04
2019-02-07T03:28:59.151Z,5.45
2019-02-07T03:31:49.497Z,5.37
2019-02-07T03:34:37.887Z,5.61
2019-02-07T03:37:16.297Z,5.56
2019-02-07T03:40:23.107Z,5.46
2019-02-07T03:43:11.674Z,6.52
2019-02-07T03:46:02.808Z,7.06
2019-02-07T03:48:49.171Z,6.96
2019-02-07T03:51:28.608Z,6.64
2019-02-07T03:54:23.645Z,7.30
2019-02-07T03:57:11.279Z,6.10
2019-02-07T04:00:06.723Z,6.53
2019-02-07T04:02:45.161Z,6.13
2019-02-07T04:05:23.520Z,6.96
2019-02-07T04:08:12.085Z,6.89
2019-02-07T04:10:53.976Z,6.71
2019-02-07T04:13:41.287Z,6.41
2019-02-07T04:16:19.709Z,6.22
2019-02-07T04:19:11.054Z,5.76
2019-02-07T04:21:55.633Z,5.57
2019-02-07T04:24:56.777Z,5.14
2019-02-07T04:27:41.361Z,4.46
2019-02-07T04:30:25.064Z,4.80
2019-02-07T04:33:28.888Z,5.07
2019-02-07T04:36:14.852Z,4.77
2019-02-07T04:38:52.899Z,4.77
2019-02-07T04:41:44.689Z,4.24
2019-02-07T04:44:48.530Z,4.58
2019-02-07T04:47:40.221Z,4.31
2019-02-07T04:50:26.076Z,4.79
2019-02-07T04:53:23.449Z,4.92
2019-02-07T04:56:10.659Z,5.29
2019-02-07T04:59:08.316Z,5.31
2019-02-07T05:01:50.485Z,5.61
2019-02-07T05:04:41.837Z,5.57
2019-02-07T05:07:29.243Z,5.45
2019-02-07T05:10:33.337Z,5.97
2019-02-07T05:13:20.586Z,6.25
2019-02-07T05:16:09.248Z,4.90
2019-02-07T05:18:57.779Z,5.02
2019-02-07T05:21:45.042Z,4.59
2019-02-07T05:24:29.774Z,4.41
2019-02-07T05:27:07.095Z,4.32
2019-02-07T05:30:01.550Z,4.30
2019-02-07T05:32:40.303Z,4.37
2019-02-07T05:35:24.891Z,4.78
2019-02-07T05:38:11.090Z,4.76
2019-02-07T05:41:17.746Z,5.27
2019-02-07T05:44:18.308Z,4.82
2019-02-07T05:47:15.927Z,5.40
2019-02-07T05:49:59.850Z,5.33
2019-02-07T05:52:40.431Z,5.21
2019-02-07T05:55:27.857Z,4.94
2019-02-07T05:58:10.444Z,4.91
2019-02-07T06:00:55.791Z,5.16
2019-02-07T06:03:47.531Z,4.78
2019-02-07T06:06:35.019Z,5.48
2019-02-07T06:09:30.156Z,5.83
2019-02-07T06:12:25.015Z,6.17
2019-02-07T06:15:10.214Z,5.38
2019-02-07T06:18:17.092Z,5.35
2019-02-07T06:21:23.862Z,5.46
2019-02-07T06:24:12.713Z,5.01
2019-02-07T06:27:16.451Z,4.84
2019-02-07T06:29:57.749Z,4.50
2019-02-07T06:32:46.514Z,4.21
2019-02-07T06:35:33.793Z,4.74
2019-02-07T06:38:13.295Z,4.75
2019-02-07T06:41:02.006Z,5.23
2019-02-07T06:43:59.662Z,4.70
2019-02-07T06:46:54.216Z,3.82
2019-02-07T06:49:53.139Z,4.28
2019-02-07T06:52:36.522Z,4.10
2019-02-07T06:55:24.642Z,4.46
2019-02-07T06:58:16.267Z,4.08
2019-02-07T07:01:08.256Z,4.39
2019-02-07T07:03:57.729Z,4.26
2019-02-07T07:06:49.571Z,3.95
2019-02-07T07:09:41.281Z,4.07
2019-02-07T07:12:19.607Z,3.95
2019-02-07T07:15:06.314Z,4.08
2019-02-07T07:17:53.674Z,4.14
2019-02-07T07:20:42.334Z,4.19
2019-02-07T07:23:33.988Z,3.80
2019-02-07T07:26:38.591Z,3.61
2019-02-07T07:29:18.611Z,4.24
2019-02-07T07:32:02.507Z,3.98
2019-02-07T07:34:49.540Z,4.64
2019-02-07T07:37:39.055Z,4.19
2019-02-07T07:40:26.990Z,4.28
2019-02-07T07:43:18.680Z,3.91
2019-02-07T07:46:13.107Z,3.87
2019-02-07T07:49:10.520Z,3.89
2019-02-07T07:51:55.471Z,4.07
2019-02-07T07:54:44.829Z,3.93
2019-02-07T07:57:31.716Z,4.56
2019-02-07T08:00:19.253Z,4.51
2019-02-07T08:03:05.435Z,3.96
2019-02-07T08:05:54.057Z,4.04
2019-02-07T08:08:41.564Z,4.46
2019-02-07T08:11:30.165Z,4.78
2019-02-07T08:14:17.962Z,4.63
2019-02-07T08:17:09.526Z,4.36
2019-02-07T08:20:01.318Z,4.61
2019-02-07T08:22:48.395Z,4.37
2019-02-07T08:25:40.069Z,4.52
2019-02-07T08:28:31.457Z,4.61
2019-02-07T08:31:18.117Z,5.08
2019-02-07T08:34:05.258Z,4.65
2019-02-07T08:37:09.594Z,4.33
2019-02-07T08:39:58.237Z,4.48
2019-02-07T08:42:58.735Z,4.20
2019-02-07T08:45:47.354Z,4.53
2019-02-07T08:48:34.843Z,4.83
2019-02-07T08:51:12.599Z,5.21
2019-02-07T08:53:50.975Z,5.30
2019-02-07T08:56:39.801Z,4.83
2019-02-07T08:59:23.370Z,4.93
2019-02-07T09:02:01.321Z,6.92
2019-02-07T09:04:52.597Z,6.17
2019-02-07T09:07:39.663Z,6.15
2019-02-07T09:10:31.480Z,6.01
2019-02-07T09:13:28.943Z,6.34
2019-02-07T09:16:32.493Z,5.42
2019-02-07T09:19:21.129Z,6.35
2019-02-07T09:22:01.979Z,6.64
2019-02-07T09:24:56.273Z,6.05
2019-02-07T09:27:48.011Z,5.65
2019-02-07T09:30:34.984Z,5.51
2019-02-07T09:33:36.843Z,6.77
2019-02-07T09:36:20.130Z,6.79
2019-02-07T09:39:09.588Z,6.65
2019-02-07T09:42:01.114Z,7.42
2019-02-07T09:44:48.507Z,7.10
2019-02-07T09:47:37.089Z,6.70
2019-02-07T09:50:20.108Z,6.38
2019-02-07T09:53:00.721Z,6.22
2019-02-07T09:55:44.432Z,5.96
2019-02-07T09:58:41.918Z,6.04
2019-02-07T10:01:29.359Z,6.03
2019-02-07T10:04:30.161Z,6.16
2019-02-07T10:07:10.478Z,6.18
2019-02-07T10:10:03.161Z,5.88
2019-02-07T10:13:03.640Z,6.25
2019-02-07T10:16:06.257Z,6.30
2019-02-07T10:18:52.515Z,6.06
2019-02-07T10:21:51.661Z,6.42
2019-02-07T10:24:45.299Z,6.58
2019-02-07T10:27:36.942Z,6.93
2019-02-07T10:30:21.436Z,7.05
2019-02-07T10:33:01.219Z,7.52
2019-02-07T10:35:50.046Z,7.21
2019-02-07T10:38:44.504Z,6.86
2019-02-07T10:41:32.055Z,7.00
2019-02-07T10:44:36.911Z,6.89
2019-02-07T10:47:31.208Z,6.67
2019-02-07T10:50:16.499Z,6.45
2019-02-07T10:53:23.009Z,6.46
2019-02-07T10:56:11.503Z,6.63
2019-02-07T10:58:49.431Z,6.57
2019-02-07T11:01:41.219Z,6.68
2019-02-07T11:04:29.915Z,7.13
2019-02-07T11:07:21.365Z,7.52
2019-02-07T11:10:08.715Z,7.59
2019-02-07T11:13:03.298Z,7.60
2019-02-07T11:16:03.867Z,7.86
2019-02-07T11:18:55.550Z,7.55
2019-02-07T11:21:52.086Z,7.55
2019-02-07T11:24:48.688Z,7.61
2019-02-07T11:27:55.218Z,7.64
2019-02-07T11:30:41.977Z,7.99
2019-02-07T11:33:29.297Z,7.89
2019-02-07T11:36:17.810Z,8.33
2019-02-07T11:39:15.784Z,8.26
2019-02-07T11:42:16.436Z,8.13
2019-02-07T11:45:01.429Z,8.17
2019-02-07T11:47:49.562Z,7.95
2019-02-07T11:50:31.797Z,7.80
2019-02-07T11:53:19.724Z,7.68
2019-02-07T11:56:14.133Z,7.67
2019-02-07T11:59:02.008Z,7.53
2019-02-07T12:01:47.732Z,7.87
2019-02-07T12:04:34.997Z,7.95
2019-02-07T12:07:27.295Z,8.25
2019-02-07T12:10:15.851Z,8.30
2019-02-07T12:13:04.451Z,8.38
2019-02-07T12:15:40.420Z,8.38
2019-02-07T12:18:21.329Z,8.22
2019-02-07T12:21:09.918Z,8.16
2019-02-07T12:23:58.415Z,8.01
2019-02-07T12:26:43.291Z,8.07
2019-02-07T12:29:34.803Z,8.11
2019-02-07T12:32:35.904Z,8.10
2019-02-07T12:35:42.829Z,8.03
2019-02-07T12:38:37.794Z,8.37
2019-02-07T12:41:39.377Z,8.55
2019-02-07T12:44:27.472Z,8.59
2019-02-07T12:47:09.956Z,8.22
2019-02-07T12:49:57.155Z,8.10
2019-02-07T12:52:45.780Z,8.06
2019-02-07T12:55:52.407Z,8.16
2019-02-07T12:58:41.503Z,8.07
2019-02-07T13:01:33.069Z,8.30
2019-02-07T13:04:17.609Z,8.26
2019-02-07T13:07:06.858Z,7.93
2019-02-07T13:09:53.743Z,8.18
2019-02-07T13:12:38.517Z,8.17
2019-02-07T13:15:30.812Z,8.03
2019-02-07T13:18:34.332Z,7.70
2019-02-07T13:21:31.814Z,7.78
2019-02-07T13:24:18.948Z,7.90
2019-02-07T13:27:02.126Z,8.05
2019-02-07T13:30:05.853Z,8.21
2019-02-07T13:32:51.689Z,8.02
2019-02-07T13:35:40.341Z,8.09
2019-02-07T13:38:27.671Z,8.30
2019-02-07T13:41:21.835Z,8.32
2019-02-07T13:44:09.291Z,8.04
2019-02-07T13:46:50.287Z,7.97
2019-02-07T13:49:51.718Z,7.82
2019-02-07T13:52:32.173Z,7.79
2019-02-07T13:55:12.583Z,7.88
2019-02-07T13:57:52.308Z,7.81
2019-02-07T14:00:41.305Z,8.03
2019-02-07T14:03:28.652Z,7.99
2019-02-07T14:06:21.495Z,8.00
2019-02-07T14:09:08.644Z,7.91
2019-02-07T14:11:55.621Z,7.96
2019-02-07T14:14:38.246Z,7.99
2019-02-07T14:17:26.127Z,8.06
2019-02-07T14:20:13.341Z,7.98
2019-02-07T14:22:54.310Z,8.46
2019-02-07T14:25:45.830Z,8.25
2019-02-07T14:28:27.471Z,8.02
2019-02-07T14:31:11.849Z,7.95
2019-02-07T14:34:18.616Z,8.32
2019-02-07T14:37:05.830Z,8.02
2019-02-07T14:39:52.787Z,8.17
2019-02-07T14:42:44.731Z,8.04
2019-02-07T14:45:32.170Z,7.89
2019-02-07T14:48:01.878Z,7.85
2019-02-07T14:50:31.569Z,7.84
2019-02-07T14:53:02.113Z,7.79
2019-02-07T14:55:31.793Z,7.94
2019-02-07T14:58:01.410Z,8.19
2019-02-07T15:00:31.440Z,8.15
2019-02-07T15:03:00.989Z,8.10
2019-02-07T15:05:31.502Z,7.89
2019-02-07T15:08:01.433Z,7.99
2019-02-07T15:10:31.074Z,7.72
2019-02-07T15:13:01.322Z,7.70
2019-02-07T15:15:31.065Z,7.62
2019-02-07T15:18:00.653Z,7.54
2019-02-07T15:20:30.234Z,7.57
2019-02-07T15:23:00.247Z,7.57
2019-02-07T15:25:29.959Z,7.56
2019-02-07T15:27:59.665Z,7.62
2019-02-07T15:30:29.516Z,7.66
2019-02-07T15:32:59.125Z,7.64
2019-02-07T15:35:31.803Z,7.65
2019-02-07T15:38:01.488Z,7.79
2019-02-07T15:40:32.521Z,7.81
2019-02-07T15:43:02.285Z,7.87
2019-02-07T15:45:31.901Z,7.85
2019-02-07T15:48:01.653Z,7.85
2019-02-07T15:50:37.609Z,7.95
2019-02-07T15:53:03.618Z,8.11
2019-02-07T15:55:33.284Z,7.95
2019-02-07T15:58:02.935Z,7.82
2019-02-07T16:00:52.301Z,7.73
2019-02-07T16:03:29.717Z,7.74
2019-02-07T16:05:59.317Z,7.54
2019-02-07T16:08:29.116Z,7.65
2019-02-07T16:10:58.722Z,7.55
2019-02-07T16:13:28.458Z,7.51
2019-02-07T16:15:58.191Z,7.52
2019-02-07T16:18:27.876Z,7.53
2019-02-07T16:20:57.484Z,7.47
2019-02-07T16:23:27.316Z,7.50
2019-02-07T16:25:57.013Z,7.43
2019-02-07T16:28:26.857Z,7.41
2019-02-07T16:30:56.664Z,7.37
2019-02-07T16:33:26.323Z,7.35
2019-02-07T16:35:56.021Z,7.38
2019-02-07T16:38:25.671Z,7.37
2019-02-07T16:40:55.580Z,7.24
2019-02-07T16:43:25.879Z,7.16
2019-02-07T16:45:55.546Z,7.13
2019-02-07T16:48:25.204Z,7.18
2019-02-07T16:51:00.172Z,7.16
2019-02-07T16:53:26.405Z,7.27
2019-02-07T16:55:56.099Z,7.31
2019-02-07T16:58:25.770Z,7.27
2019-02-07T17:00:55.381Z,7.28
2019-02-07T17:03:24.987Z,7.33
2019-02-07T17:05:54.615Z,7.22
2019-02-07T17:08:24.172Z,7.29
2019-02-07T17:10:53.867Z,7.21
2019-02-07T17:13:23.473Z,7.13
2019-02-07T17:15:53.084Z,7.27
2019-02-07T17:18:22.834Z,7.28
2019-02-07T17:20:52.406Z,7.30
2019-02-07T17:23:22.113Z,7.31
2019-02-07T17:25:51.774Z,7.17
2019-02-07T17:28:21.656Z,7.34
2019-02-07T17:30:51.257Z,7.24
2019-02-07T17:33:21.429Z,7.23
2019-02-07T17:35:51.070Z,7.22
2019-02-07T17:38:20.597Z,7.31
2019-02-07T17:40:50.318Z,7.30
2019-02-07T17:43:20.888Z,7.32
2019-02-07T17:45:50.462Z,7.21
2019-02-07T17:48:20.410Z,7.13
2019-02-07T17:50:49.951Z,7.17
2019-02-07T17:53:19.471Z,7.14
2019-02-07T17:55:49.427Z,7.17
2019-02-07T17:58:19.020Z,7.28
2019-02-07T18:00:57.208Z,7.22
2019-02-07T18:03:26.795Z,7.15
2019-02-07T18:05:56.440Z,7.10
2019-02-07T18:08:26.125Z,7.07
2019-02-07T18:10:55.763Z,7.03
2019-02-07T18:13:25.361Z,7.09
2019-02-07T18:15:57.422Z,7.10
2019-02-07T18:18:26.234Z,7.10
2019-02-07T18:20:55.813Z,7.06
2019-02-07T18:23:25.388Z,6.95
2019-02-07T18:25:54.937Z,6.99
2019-02-07T18:28:24.538Z,7.15
2019-02-07T18:30:54.139Z,7.12
2019-02-07T18:33:23.706Z,7.05
2019-02-07T18:35:53.373Z,7.05
2019-02-07T18:38:23.051Z,7.07
2019-02-07T18:40:52.659Z,7.09
2019-02-07T18:43:22.333Z,7.11
2019-02-07T18:45:51.961Z,7.17
2019-02-07T18:48:21.484Z,7.16
2019-02-07T18:50:51.138Z,7.09
2019-02-07T18:53:20.897Z,7.13
2019-02-07T18:55:50.638Z,7.07
2019-02-07T18:58:20.304Z,7.12
2019-02-07T19:00:49.929Z,7.19
2019-02-07T19:03:19.481Z,7.14
2019-02-07T19:05:49.235Z,7.02
2019-02-07T19:08:18.855Z,6.97
2019-02-07T19:10:48.501Z,6.96
2019-02-07T19:13:18.107Z,6.96
2019-02-07T19:15:50.592Z,7.02
2019-02-07T19:18:20.313Z,7.00
2019-02-07T19:20:49.883Z,6.99
2019-02-07T19:23:19.860Z,6.96
2019-02-07T19:25:49.471Z,6.99
2019-02-07T19:28:19.077Z,6.96
2019-02-07T19:30:48.752Z,7.05
2019-02-07T19:33:22.364Z,7.00
2019-02-07T19:35:51.045Z,7.04
2019-02-07T19:38:21.151Z,7.10
2019-02-07T19:40:50.764Z,7.14
2019-02-07T19:43:20.473Z,7.14
2019-02-07T19:45:50.146Z,7.14
2019-02-07T19:48:19.982Z,7.16
2019-02-07T19:50:49.773Z,7.21
2019-02-07T19:53:20.020Z,7.24
2019-02-07T19:55:49.585Z,7.27
2019-02-07T19:58:21.316Z,7.29
2019-02-07T20:00:50.977Z,7.28
2019-02-07T20:03:20.566Z,7.35
2019-02-07T20:05:50.193Z,7.35
2019-02-07T20:08:20.022Z,7.31
2019-02-07T20:10:49.639Z,7.21
2019-02-07T20:13:19.471Z,7.15
2019-02-07T20:15:49.114Z,7.12
2019-02-07T20:18:18.728Z,7.13
2019-02-07T20:20:48.302Z,7.22
2019-02-07T20:23:18.296Z,7.16
2019-02-07T20:25:47.834Z,7.12
2019-02-07T20:28:17.519Z,7.14
2019-02-07T20:33:16.715Z,6.91
2019-02-07T20:35:46.367Z,6.93
2019-02-07T20:38:15.978Z,6.88
2019-02-07T20:40:45.837Z,6.91
2019-02-07T20:43:15.533Z,6.95
2019-02-07T20:45:45.173Z,7.01
2019-02-07T20:48:14.710Z,7.04
2019-02-07T20:50:44.264Z,7.07
2019-02-07T20:53:17.491Z,7.15
2019-02-07T20:55:47.525Z,7.14
2019-02-07T20:58:17.153Z,7.08
2019-02-07T21:00:46.783Z,6.99
2019-02-07T21:03:16.374Z,6.89
2019-02-07T21:05:45.966Z,7.13
2019-02-07T21:08:15.526Z,7.22
2019-02-07T21:10:45.130Z,7.21
2019-02-07T21:13:14.749Z,7.00
2019-02-07T21:15:44.228Z,6.99
2019-02-07T21:18:13.852Z,6.93
2019-02-07T21:20:43.433Z,6.91
2019-02-07T21:23:13.063Z,6.91
2019-02-07T21:25:48.123Z,6.97
2019-02-07T21:28:17.830Z,6.98
2019-02-07T21:30:47.455Z,6.82
2019-02-07T21:33:17.037Z,6.87
2019-02-07T21:35:46.685Z,6.81
2019-02-07T21:38:16.381Z,6.76
2019-02-07T21:40:45.932Z,6.79
2019-02-07T21:43:15.816Z,6.67
2019-02-07T21:45:45.460Z,6.89
2019-02-07T21:48:15.030Z,6.95
2019-02-07T21:50:44.589Z,6.88
2019-02-07T21:53:14.211Z,6.82
2019-02-07T21:55:43.860Z,6.80
2019-02-07T21:58:13.733Z,6.80
2019-02-07T22:00:44.646Z,6.87
2019-02-07T22:03:15.069Z,7.01
2019-02-07T22:05:44.848Z,7.08
2019-02-07T22:08:14.507Z,7.10
2019-02-07T22:10:44.182Z,6.93
2019-02-07T22:13:14.089Z,6.89
2019-02-07T22:15:43.707Z,6.87
2019-02-07T22:18:13.296Z,6.87
2019-02-07T22:20:42.874Z,6.79
2019-02-07T22:23:12.700Z,6.70
2019-02-07T22:25:42.279Z,6.79
2019-02-07T22:28:12.255Z,6.80
2019-02-07T22:30:41.917Z,6.83
2019-02-07T22:33:11.585Z,6.82
2019-02-07T22:35:41.179Z,6.90
2019-02-07T22:38:10.776Z,6.75
2019-02-07T22:40:40.442Z,6.79
2019-02-07T22:43:10.308Z,6.64
2019-02-07T22:45:39.950Z,6.78
2019-02-07T22:48:09.608Z,6.69
2019-02-07T22:50:39.631Z,6.76
2019-02-07T22:53:09.244Z,6.80
2019-02-07T22:55:38.905Z,6.84
2019-02-07T22:58:09.398Z,6.87
2019-02-07T23:01:26.414Z,6.87
2019-02-07T23:03:58.108Z,6.78
2019-02-07T23:06:27.760Z,6.92
2019-02-07T23:08:57.530Z,6.89
2019-02-07T23:11:27.282Z,6.89
2019-02-07T23:13:56.926Z,6.75
2019-02-07T23:16:26.944Z,6.77
2019-02-07T23:18:56.530Z,6.76
2019-02-07T23:21:26.109Z,6.75
2019-02-07T23:23:55.783Z,6.84
2019-02-07T23:26:25.622Z,6.97
2019-02-07T23:28:55.180Z,7.01
2019-02-07T23:31:25.185Z,6.97
2019-02-07T23:33:54.755Z,7.14
2019-02-07T23:36:24.332Z,7.10
2019-02-07T23:38:53.901Z,7.20
2019-02-07T23:41:23.476Z,7.16
2019-02-07T23:43:53.129Z,7.07
2019-02-07T23:46:23.415Z,7.09
2019-02-07T23:48:53.022Z,7.09
2019-02-07T23:51:22.599Z,7.02
2019-02-07T23:53:52.346Z,7.05
2019-02-07T23:56:21.915Z,7.02
2019-02-07T23:58:51.488Z,7.05
